Bungay, Illinois
Current Conditions -  °F | °C
As of 7:35 PM on Saturday 20 Dec 2014 (Local Time) from KFWC Reporting Station
Overcast Overcast  
Wind Chill: 34°   Ceiling: 2900
Heat Index: 34°   Visibility: 10mi
Dew Point: 29°   Wind: 3mph
Humidity: 79%   Direction: 100°E
Pressure: 30.29"   Gusts: NA
Location:  38.1658°N, 88.3782°W
Report Text: KFWC 210135Z AUTO 10003KT 10SM OVC029 01/M02 A3029 RMK AO1 T00131019
Loading
Personal Weather Stations






























Interactive Weather Map New forecast layout! Learn more

10-Day Weather Forecast

Advertisements
Track Severe Weather on mobile